Time;durP1;ratioP1;P1;durP2;ratioP2;P2;SDS_P1;SDS_P2;PMS_P1;PMS_P2;Temp;Humidity;BMP_temperature;BMP_pressure;BME280_temperature;BME280_humidity;BME280_pressure;Samples;Min_cycle;Max_cycle;Signal;HPM_P1;HPM_P2
2021/08/27 00:00:59;;;;;;;36.65;10.88;;;15.90;81.10;;;;;;5059891;28;20049;-89
2021/08/27 00:03:26;;;;;;;28.63;9.80;;;15.90;81.10;;;;;;5032418;28;20140;-89
2021/08/27 00:05:53;;;;;;;27.88;9.15;;;15.90;81.10;;;;;;5030378;28;20042;-89
2021/08/27 00:08:20;;;;;;;32.50;11.00;;;15.90;81.10;;;;;;5033821;28;20060;-89
2021/08/27 00:10:47;;;;;;;31.60;10.40;;;15.90;81.10;;;;;;5030983;28;20500;-90
2021/08/27 00:13:14;;;;;;;27.10;9.85;;;15.90;81.10;;;;;;5029849;28;20058;-89
2021/08/27 00:15:41;;;;;;;28.27;9.65;;;16.00;81.10;;;;;;5032060;28;20042;-87
2021/08/27 00:18:08;;;;;;;29.95;10.30;;;16.00;81.10;;;;;;5028336;28;20053;-89
2021/08/27 00:20:36;;;;;;;31.40;10.90;;;16.00;81.20;;;;;;5014804;28;20054;-89
2021/08/27 00:23:05;;;;;;;30.38;11.23;;;16.00;81.20;;;;;;5033646;28;20049;-88
2021/08/27 00:25:32;;;;;;;32.72;10.45;;;16.00;81.20;;;;;;5031929;28;20581;-90
2021/08/27 00:27:59;;;;;;;26.85;10.25;;;16.00;81.20;;;;;;5030649;28;20043;-91
2021/08/27 00:30:26;;;;;;;30.58;11.30;;;16.10;81.20;;;;;;5032102;28;20053;-91
2021/08/27 00:32:53;;;;;;;26.90;10.73;;;16.10;81.20;;;;;;5029171;28;20053;-90
2021/08/27 00:35:20;;;;;;;30.80;10.68;;;16.10;81.20;;;;;;5033650;28;20132;-90
2021/08/27 00:37:47;;;;;;;22.08;9.55;;;16.00;81.20;;;;;;5031148;28;20064;-90
2021/08/27 00:40:14;;;;;;;32.85;10.77;;;16.10;81.20;;;;;;5031735;28;20057;-91
2021/08/27 00:42:41;;;;;;;39.17;11.82;;;16.10;81.20;;;;;;5030204;28;20057;-90
2021/08/27 00:45:09;;;;;;;39.33;11.60;;;16.10;81.20;;;;;;5031847;28;20045;-90
2021/08/27 00:47:36;;;;;;;32.00;12.75;;;16.10;81.20;;;;;;5031230;28;20103;-89
2021/08/27 00:50:04;;;;;;;26.58;10.75;;;16.10;81.20;;;;;;5031037;28;20057;-89
2021/08/27 00:52:31;;;;;;;37.88;11.95;;;16.10;81.20;;;;;;5031478;28;20062;-90
2021/08/27 00:54:58;;;;;;;27.80;11.32;;;16.10;81.20;;;;;;5031449;28;20045;-89
2021/08/27 00:57:25;;;;;;;36.13;11.60;;;16.10;81.20;;;;;;5031121;28;20046;-90
2021/08/27 00:59:52;;;;;;;30.30;11.38;;;16.00;81.10;;;;;;5030369;28;20053;-89
2021/08/27 01:02:19;;;;;;;34.25;11.63;;;16.10;81.10;;;;;;5032876;28;20103;-89
2021/08/27 01:04:48;;;;;;;33.58;11.50;;;16.00;81.10;;;;;;5030414;28;20049;-89
2021/08/27 01:07:27;;;;;;;27.90;10.27;;;16.00;81.20;;;;;;5030184;28;20474;-89
2021/08/27 01:10:06;;;;;;;27.23;10.77;;;16.00;81.20;;;;;;5031187;28;20046;-90
2021/08/27 01:12:45;;;;;;;27.52;10.57;;;16.00;81.20;;;;;;5030586;28;20408;-89
2021/08/27 01:15:23;;;;;;;34.22;10.45;;;16.00;81.10;;;;;;5031301;28;20053;-90
2021/08/27 01:17:58;;;;;;;32.40;10.93;;;16.00;81.10;;;;;;5016084;28;20088;-89
2021/08/27 01:20:57;;;;;;;31.33;10.25;;;16.00;81.00;;;;;;5031165;28;20404;-89
2021/08/27 01:23:42;;;;;;;24.83;10.15;;;15.90;80.90;;;;;;4988301;28;20046;-90
2021/08/27 01:26:09;;;;;;;30.27;10.50;;;15.90;80.80;;;;;;4991149;28;20046;-89
2021/08/27 01:28:42;;;;;;;29.27;10.48;;;15.90;80.80;;;;;;4990891;28;20050;-89
2021/08/27 01:31:23;;;;;;;23.73;9.85;;;15.90;80.80;;;;;;4990771;28;20046;-89
2021/08/27 01:34:30;;;;;;;28.50;9.95;;;15.90;80.80;;;;;;4974557;28;20046;-89
2021/08/27 01:36:58;;;;;;;32.40;10.30;;;15.80;80.70;;;;;;4974207;28;20050;-89
2021/08/27 01:39:32;;;;;;;28.20;10.00;;;15.70;80.80;;;;;;4974290;28;20113;-89
2021/08/27 01:42:02;;;;;;;25.80;9.88;;;15.70;80.80;;;;;;4991165;28;20499;-89
2021/08/27 01:44:29;;;;;;;28.45;10.95;;;15.70;80.80;;;;;;4990896;28;20097;-88
2021/08/27 01:46:59;;;;;;;22.95;9.30;;;15.60;80.80;;;;;;4991157;28;20081;-89
2021/08/27 01:49:30;;;;;;;22.00;8.95;;;15.60;80.90;;;;;;4990785;28;20101;-90
2021/08/27 01:51:59;;;;;;;33.28;10.40;;;15.60;80.90;;;;;;4974282;28;20054;-89
2021/08/27 01:54:27;;;;;;;25.67;8.73;;;15.60;80.90;;;;;;4990193;28;20097;-90
2021/08/27 01:56:54;;;;;;;21.88;8.55;;;15.60;80.90;;;;;;4974737;28;20046;-89
2021/08/27 01:59:23;;;;;;;23.50;9.48;;;15.50;80.90;;;;;;5002695;28;20054;-89
2021/08/27 02:01:51;;;;;;;24.38;8.48;;;15.60;80.90;;;;;;5030155;28;20049;-88
2021/08/27 02:04:20;;;;;;;26.05;8.93;;;15.50;80.90;;;;;;5030236;28;20477;-89
2021/08/27 02:06:48;;;;;;;29.67;9.48;;;15.40;80.90;;;;;;5057862;28;20100;-88
2021/08/27 02:09:16;;;;;;;35.45;9.57;;;15.40;80.90;;;;;;5030004;28;20041;-90
2021/08/27 02:11:44;;;;;;;35.13;9.80;;;15.40;80.90;;;;;;5029516;28;20038;-89
2021/08/27 02:14:12;;;;;;;27.98;9.60;;;15.40;80.80;;;;;;5030952;28;20053;-89
2021/08/27 02:16:39;;;;;;;27.45;9.07;;;15.40;80.90;;;;;;5029086;28;20053;-90
2021/08/27 02:19:06;;;;;;;28.73;9.00;;;15.40;80.90;;;;;;5028694;28;20136;-89
2021/08/27 02:21:41;;;;;;;23.90;7.65;;;15.30;80.90;;;;;;5030144;28;20065;-89
2021/08/27 02:24:15;;;;;;;27.63;8.75;;;15.30;80.90;;;;;;5063225;28;20045;-89
2021/08/27 02:26:44;;;;;;;19.98;6.97;;;15.30;80.80;;;;;;5030263;28;20119;-89
2021/08/27 02:29:14;;;;;;;20.63;7.75;;;15.30;80.80;;;;;;5059792;28;20053;-89
2021/08/27 02:31:44;;;;;;;24.60;7.63;;;15.20;80.70;;;;;;5030011;28;20049;-90
2021/08/27 02:34:13;;;;;;;21.70;8.15;;;15.20;80.60;;;;;;5030340;28;20048;-89
2021/08/27 02:36:41;;;;;;;24.85;8.77;;;15.20;80.60;;;;;;5057552;28;20107;-89
2021/08/27 02:39:10;;;;;;;20.55;9.05;;;15.20;80.50;;;;;;5029466;28;20110;-89
2021/08/27 02:41:38;;;;;;;20.80;7.82;;;15.10;80.50;;;;;;5030073;28;20049;-89
2021/08/27 02:44:05;;;;;;;19.30;7.93;;;15.10;80.50;;;;;;5031065;28;20050;-90
2021/08/27 02:46:34;;;;;;;23.02;8.43;;;15.10;80.50;;;;;;5031050;28;20107;-89
2021/08/27 02:49:01;;;;;;;21.23;7.93;;;15.10;80.40;;;;;;5030615;28;20099;-89
2021/08/27 02:51:58;;;;;;;23.35;7.25;;;15.00;80.40;;;;;;5061214;28;20061;-89
2021/08/27 02:54:31;;;;;;;21.88;7.57;;;15.00;80.30;;;;;;5034385;28;20565;-89
2021/08/27 02:57:02;;;;;;;19.40;7.82;;;15.00;80.20;;;;;;5032239;28;20413;-89
2021/08/27 02:59:30;;;;;;;23.85;8.52;;;14.90;80.10;;;;;;5034220;28;20057;-88
2021/08/27 03:02:02;;;;;;;23.45;7.70;;;14.90;80.10;;;;;;5035427;28;20057;-89
2021/08/27 03:04:55;;;;;;;18.58;7.15;;;14.90;80.10;;;;;;5054797;28;20046;-89
2021/08/27 03:07:25;;;;;;;19.20;7.70;;;14.90;80.00;;;;;;5030681;28;20499;-88
2021/08/27 03:10:01;;;;;;;19.60;7.57;;;14.90;80.00;;;;;;5033557;28;20065;-89
2021/08/27 03:12:56;;;;;;;21.40;7.78;;;14.90;79.90;;;;;;5033364;28;20053;-90
2021/08/27 03:15:52;;;;;;;19.00;7.15;;;14.90;79.90;;;;;;5034020;28;20049;-89
2021/08/27 03:18:42;;;;;;;19.08;7.30;;;14.90;80.00;;;;;;4993213;28;20057;-88
2021/08/27 03:21:16;;;;;;;16.13;6.03;;;14.90;79.90;;;;;;4980698;28;20484;-89
2021/08/27 03:23:47;;;;;;;19.27;6.72;;;14.90;79.90;;;;;;4993317;28;20089;-89
2021/08/27 03:26:19;;;;;;;15.63;6.32;;;14.80;79.80;;;;;;4977930;28;20066;-89
2021/08/27 03:28:51;;;;;;;17.15;6.65;;;14.80;79.70;;;;;;4993817;28;20058;-88
2021/08/27 03:31:21;;;;;;;20.45;6.57;;;14.80;79.60;;;;;;4993229;28;20054;-89
2021/08/27 03:33:50;;;;;;;16.75;6.88;;;14.80;79.40;;;;;;4993097;28;20132;-89
2021/08/27 03:36:17;;;;;;;13.88;6.78;;;14.70;79.40;;;;;;5008907;28;20457;-88
2021/08/27 03:38:44;;;;;;;17.35;6.88;;;14.70;79.40;;;;;;4993417;28;20050;-89
2021/08/27 03:41:12;;;;;;;15.30;6.32;;;14.70;79.40;;;;;;4977298;28;20043;-89
2021/08/27 03:43:41;;;;;;;19.13;7.25;;;14.70;79.30;;;;;;4992873;28;20117;-88
2021/08/27 03:46:08;;;;;;;17.17;6.32;;;14.70;79.30;;;;;;4977049;28;20118;-88
2021/08/27 03:48:35;;;;;;;15.80;6.93;;;14.60;79.10;;;;;;4992694;28;20049;-89
2021/08/27 03:51:02;;;;;;;13.18;6.47;;;14.60;79.00;;;;;;4992311;28;20101;-88
2021/08/27 03:53:33;;;;;;;16.30;7.18;;;14.60;78.80;;;;;;4993010;28;20100;-88
2021/08/27 03:56:00;;;;;;;29.70;6.88;;;14.60;78.80;;;;;;5021105;28;20049;-88
2021/08/27 03:58:28;;;;;;;15.65;6.65;;;14.60;78.70;;;;;;5031498;28;20120;-89
2021/08/27 04:00:56;;;;;;;18.70;7.18;;;14.50;78.60;;;;;;5032480;28;20565;-89
2021/08/27 04:03:24;;;;;;;21.73;7.45;;;14.50;78.50;;;;;;5032568;28;20045;-89
2021/08/27 04:06:05;;;;;;;16.45;6.93;;;14.40;78.60;;;;;;5031097;28;20053;-90
2021/08/27 04:08:38;;;;;;;18.33;6.28;;;14.40;78.60;;;;;;5031341;28;20103;-88
2021/08/27 04:11:06;;;;;;;17.88;7.07;;;14.40;78.60;;;;;;5029037;28;20050;-88
2021/08/27 04:13:34;;;;;;;19.98;7.28;;;14.40;78.60;;;;;;5032361;28;20049;-89
2021/08/27 04:16:02;;;;;;;19.88;7.15;;;14.40;78.70;;;;;;5031003;28;20041;-88
2021/08/27 04:18:29;;;;;;;20.17;7.70;;;14.40;78.90;;;;;;5032119;28;20049;-87
2021/08/27 04:20:56;;;;;;;21.90;8.32;;;14.40;79.00;;;;;;5030719;28;20515;-88
2021/08/27 04:23:24;;;;;;;18.40;6.88;;;14.40;79.00;;;;;;5033342;28;20447;-88
2021/08/27 04:25:51;;;;;;;14.15;6.18;;;14.30;78.90;;;;;;5033053;28;20049;-88
2021/08/27 04:28:18;;;;;;;22.95;7.20;;;14.30;78.80;;;;;;5030035;28;20454;-88
2021/08/27 04:30:45;;;;;;;14.55;6.47;;;14.20;78.80;;;;;;5031923;28;20048;-87
2021/08/27 04:33:12;;;;;;;16.95;6.57;;;14.30;78.80;;;;;;5031906;28;20048;-89
2021/08/27 04:35:39;;;;;;;16.23;6.20;;;14.20;78.70;;;;;;5030620;28;20054;-89
2021/08/27 04:38:06;;;;;;;15.20;6.10;;;14.20;78.60;;;;;;5032942;28;20041;-89
2021/08/27 04:40:33;;;;;;;18.13;6.90;;;14.20;78.40;;;;;;5031630;28;20056;-90
2021/08/27 04:43:00;;;;;;;15.77;6.30;;;14.20;78.40;;;;;;5029536;28;20053;-90
2021/08/27 04:45:27;;;;;;;14.13;5.65;;;14.10;78.30;;;;;;5030186;28;20107;-88
2021/08/27 04:47:54;;;;;;;17.98;6.00;;;14.10;78.20;;;;;;5030255;28;20132;-89
2021/08/27 04:50:21;;;;;;;14.65;5.45;;;14.00;78.20;;;;;;5032656;28;20045;-89
2021/08/27 04:52:48;;;;;;;13.38;6.22;;;14.00;78.20;;;;;;5026646;28;20534;-89
2021/08/27 04:55:15;;;;;;;12.07;6.03;;;14.00;78.20;;;;;;5025398;28;20049;-89
2021/08/27 04:57:42;;;;;;;19.95;6.53;;;14.00;78.30;;;;;;5026256;28;20045;-89
2021/08/27 05:00:10;;;;;;;14.20;6.45;;;13.90;78.40;;;;;;5030217;28;20053;-88
2021/08/27 05:02:38;;;;;;;11.85;6.45;;;13.90;78.40;;;;;;5029742;28;20424;-88
2021/08/27 05:05:06;;;;;;;16.85;7.25;;;13.90;78.60;;;;;;5033307;28;20041;-89
2021/08/27 05:07:33;;;;;;;12.63;6.18;;;13.90;78.70;;;;;;5030042;28;20053;-88
2021/08/27 05:10:00;;;;;;;19.67;7.20;;;13.90;78.80;;;;;;5029433;28;20049;-88
2021/08/27 05:12:27;;;;;;;12.80;6.55;;;13.90;78.90;;;;;;5030980;28;20515;-88
2021/08/27 05:14:55;;;;;;;13.77;6.43;;;13.90;78.80;;;;;;5031133;28;20535;-88
2021/08/27 05:17:22;;;;;;;15.10;6.75;;;13.90;78.90;;;;;;5032043;28;20049;-87
2021/08/27 05:19:49;;;;;;;12.82;5.70;;;13.90;78.90;;;;;;5030886;28;20053;-87
2021/08/27 05:22:17;;;;;;;15.30;6.18;;;13.90;78.90;;;;;;5030762;28;20057;-87
2021/08/27 05:24:44;;;;;;;15.82;6.20;;;13.90;79.00;;;;;;5030933;28;20042;-88
2021/08/27 05:27:12;;;;;;;18.63;7.13;;;13.80;79.10;;;;;;5062620;28;20534;-89
2021/08/27 05:29:39;;;;;;;16.58;7.50;;;13.80;79.10;;;;;;5029537;28;20049;-89
2021/08/27 05:32:07;;;;;;;16.75;6.13;;;13.80;79.20;;;;;;5030218;28;20103;-88
2021/08/27 05:34:34;;;;;;;10.68;5.30;;;13.80;79.30;;;;;;5051074;28;20068;-88
2021/08/27 05:37:02;;;;;;;16.35;6.05;;;13.80;79.30;;;;;;5022530;28;20045;-88
2021/08/27 05:39:29;;;;;;;13.60;6.22;;;13.80;79.40;;;;;;5028616;28;20507;-87
2021/08/27 05:41:57;;;;;;;17.90;6.50;;;13.80;79.50;;;;;;5030620;28;20046;-88
2021/08/27 05:44:24;;;;;;;12.93;6.40;;;13.80;79.60;;;;;;5031447;28;20096;-87
2021/08/27 05:46:51;;;;;;;19.80;6.88;;;13.80;79.80;;;;;;5031256;28;20511;-88
2021/08/27 05:49:18;;;;;;;16.58;7.03;;;13.90;79.90;;;;;;5031402;28;20495;-89
2021/08/27 05:51:45;;;;;;;15.38;7.00;;;13.90;80.10;;;;;;5030371;28;20481;-87
2021/08/27 05:54:12;;;;;;;15.98;6.68;;;13.90;80.30;;;;;;5030723;28;20474;-88
2021/08/27 05:56:39;;;;;;;19.17;7.75;;;13.90;80.40;;;;;;5030510;28;20145;-88
2021/08/27 05:59:06;;;;;;;17.10;6.82;;;13.90;80.60;;;;;;5031329;28;20095;-88
2021/08/27 06:01:33;;;;;;;20.80;7.63;;;13.90;80.80;;;;;;5023682;28;20108;-89
2021/08/27 06:04:01;;;;;;;18.50;7.30;;;13.90;80.90;;;;;;5029339;28;20557;-89
2021/08/27 06:06:28;;;;;;;15.73;7.53;;;14.00;81.00;;;;;;5030195;28;20111;-89
2021/08/27 06:08:55;;;;;;;20.73;6.85;;;14.00;81.10;;;;;;5028313;28;20046;-88
2021/08/27 06:11:22;;;;;;;19.95;8.20;;;14.00;81.20;;;;;;5031699;28;20053;-88
2021/08/27 06:13:49;;;;;;;15.15;7.35;;;14.00;81.30;;;;;;5029826;28;20045;-89
2021/08/27 06:16:16;;;;;;;15.10;7.93;;;14.10;81.40;;;;;;5028851;28;20053;-89
2021/08/27 06:18:43;;;;;;;19.48;7.50;;;14.20;81.50;;;;;;5029140;28;20041;-89
2021/08/27 06:21:10;;;;;;;19.98;7.05;;;14.20;81.60;;;;;;5030708;28;20091;-89
2021/08/27 06:23:36;;;;;;;14.25;7.40;;;14.20;81.80;;;;;;5034831;28;20455;-88
2021/08/27 06:26:03;;;;;;;21.48;8.23;;;14.30;81.90;;;;;;5035093;28;20057;-88
2021/08/27 06:28:30;;;;;;;17.10;6.43;;;14.30;81.90;;;;;;5024418;28;20107;-90
2021/08/27 06:30:57;;;;;;;21.50;8.43;;;14.40;82.00;;;;;;5028486;28;20103;-89
2021/08/27 06:33:24;;;;;;;19.02;7.88;;;14.40;82.10;;;;;;5031105;28;20060;-87
2021/08/27 06:35:51;;;;;;;16.70;7.00;;;14.40;82.20;;;;;;5017950;28;20103;-89
2021/08/27 06:38:25;;;;;;;21.23;8.00;;;14.40;82.20;;;;;;5034811;28;20500;-86
2021/08/27 06:41:02;;;;;;;18.55;6.78;;;14.50;82.20;;;;;;5031049;28;20050;-87
2021/08/27 06:43:32;;;;;;;14.85;6.70;;;14.60;82.20;;;;;;5022301;28;20104;-87
2021/08/27 06:46:04;;;;;;;15.68;6.80;;;14.60;82.10;;;;;;5020006;28;20045;-88
2021/08/27 06:48:31;;;;;;;15.85;7.07;;;14.70;82.10;;;;;;5020415;28;20041;-87
2021/08/27 06:50:58;;;;;;;17.50;7.10;;;14.70;82.20;;;;;;5015131;28;20080;-87
2021/08/27 06:53:26;;;;;;;23.58;7.15;;;14.80;82.20;;;;;;5028910;28;20054;-86
2021/08/27 06:55:53;;;;;;;18.10;7.13;;;14.80;82.30;;;;;;5059853;28;20092;-86
2021/08/27 06:58:20;;;;;;;16.33;6.85;;;14.90;82.30;;;;;;5028358;28;20474;-87
2021/08/27 07:00:47;;;;;;;15.30;6.68;;;14.90;82.50;;;;;;5027186;28;20544;-87
2021/08/27 07:03:14;;;;;;;17.80;6.72;;;14.90;82.50;;;;;;5018633;28;20145;-87
2021/08/27 07:05:42;;;;;;;19.75;7.15;;;15.00;82.50;;;;;;5015884;28;20081;-87
2021/08/27 07:08:09;;;;;;;13.05;5.93;;;15.10;82.60;;;;;;5019712;28;20053;-86
2021/08/27 07:10:36;;;;;;;13.50;6.40;;;15.10;82.60;;;;;;5020813;28;20056;-88
2021/08/27 07:13:03;;;;;;;20.10;6.80;;;15.20;82.60;;;;;;5018684;28;20076;-87
2021/08/27 07:15:31;;;;;;;15.00;5.43;;;15.20;82.60;;;;;;5020316;28;20123;-86
2021/08/27 07:17:58;;;;;;;17.17;5.65;;;15.30;82.60;;;;;;5016643;28;20115;-86
2021/08/27 07:20:28;;;;;;;16.67;5.78;;;15.30;82.50;;;;;;5049492;28;20092;-86
2021/08/27 07:22:55;;;;;;;16.50;6.00;;;15.40;82.50;;;;;;5027006;28;20050;-87
2021/08/27 07:25:23;;;;;;;13.90;5.60;;;15.40;82.40;;;;;;5054092;28;20054;-87
2021/08/27 07:27:50;;;;;;;16.42;6.15;;;15.50;82.40;;;;;;5016594;28;20053;-86
2021/08/27 07:30:17;;;;;;;19.23;6.05;;;15.50;82.40;;;;;;5029355;28;20100;-87
2021/08/27 07:32:44;;;;;;;15.52;5.38;;;15.60;82.50;;;;;;5030470;28;20463;-86
2021/08/27 07:35:11;;;;;;;15.77;5.18;;;15.70;82.50;;;;;;5030382;28;20133;-86
2021/08/27 07:37:41;;;;;;;11.50;4.55;;;15.70;82.40;;;;;;5022546;28;20054;-85
2021/08/27 07:40:10;;;;;;;15.27;4.68;;;15.90;82.30;;;;;;5019446;28;20068;-87
2021/08/27 07:42:37;;;;;;;15.52;4.50;;;15.90;82.10;;;;;;5020475;28;20523;-85
2021/08/27 07:45:05;;;;;;;8.75;3.90;;;15.90;82.00;;;;;;5016793;28;20049;-87
2021/08/27 07:47:32;;;;;;;13.40;4.60;;;16.00;81.90;;;;;;5031016;28;20446;-87
2021/08/27 07:49:59;;;;;;;13.00;3.30;;;16.10;81.60;;;;;;5019151;28;20168;-86
2021/08/27 07:52:26;;;;;;;12.23;3.20;;;16.10;81.40;;;;;;5018945;28;20389;-88
2021/08/27 07:54:53;;;;;;;18.80;4.22;;;16.20;81.20;;;;;;5021286;28;20096;-87
2021/08/27 07:57:20;;;;;;;10.40;3.53;;;16.20;81.00;;;;;;5020598;28;20458;-88
2021/08/27 07:59:47;;;;;;;12.32;3.17;;;16.20;80.70;;;;;;5014765;28;20041;-88
2021/08/27 08:02:14;;;;;;;12.48;3.45;;;16.20;80.50;;;;;;5018945;28;20058;-87
2021/08/27 08:04:42;;;;;;;8.95;2.85;;;16.20;80.40;;;;;;5031775;28;20050;-88
2021/08/27 08:07:09;;;;;;;13.77;2.97;;;16.30;80.50;;;;;;5023582;28;20050;-87
2021/08/27 08:09:36;;;;;;;11.57;3.22;;;16.30;80.50;;;;;;5020684;28;20049;-89
2021/08/27 08:12:04;;;;;;;10.93;3.10;;;16.30;80.50;;;;;;5016034;28;20623;-88
2021/08/27 08:14:30;;;;;;;10.18;3.17;;;16.40;80.50;;;;;;5016410;28;20042;-87
2021/08/27 08:16:57;;;;;;;10.90;3.30;;;16.40;80.50;;;;;;5018511;28;20054;-89
2021/08/27 08:19:24;;;;;;;16.00;3.08;;;16.40;80.50;;;;;;5018558;28;20045;-86
2021/08/27 08:21:51;;;;;;;16.98;2.95;;;16.50;80.30;;;;;;5019470;28;20479;-87
2021/08/27 08:24:18;;;;;;;14.45;2.90;;;16.60;79.90;;;;;;5029638;28;20470;-87
2021/08/27 08:26:45;;;;;;;8.68;2.65;;;16.70;79.80;;;;;;5013230;28;20467;-86
2021/08/27 08:29:12;;;;;;;10.35;2.00;;;16.80;79.60;;;;;;5018499;28;20058;-88
2021/08/27 08:31:39;;;;;;;7.75;2.53;;;16.90;79.50;;;;;;5018312;28;20100;-86
2021/08/27 08:34:05;;;;;;;8.13;1.83;;;17.00;79.40;;;;;;5020240;28;20050;-87
2021/08/27 08:36:32;;;;;;;7.68;1.50;;;17.10;79.10;;;;;;5018431;28;20054;-90
2021/08/27 08:38:59;;;;;;;13.18;2.10;;;17.20;78.70;;;;;;5015793;28;20076;-87
2021/08/27 08:41:26;;;;;;;11.23;1.85;;;17.30;77.90;;;;;;5028388;28;20053;-87
2021/08/27 08:43:53;;;;;;;7.55;2.30;;;17.40;77.50;;;;;;5027555;28;20460;-86
2021/08/27 08:46:22;;;;;;;13.20;2.33;;;17.50;77.40;;;;;;5021167;28;20049;-87
2021/08/27 08:48:51;;;;;;;7.80;1.90;;;17.60;77.20;;;;;;5016868;28;20716;-87
2021/08/27 08:51:23;;;;;;;9.10;2.35;;;17.70;76.80;;;;;;5026511;28;20050;-87
2021/08/27 08:53:50;;;;;;;8.63;1.92;;;17.80;76.70;;;;;;5013798;28;20048;-86
2021/08/27 08:56:18;;;;;;;9.27;2.40;;;17.90;76.70;;;;;;5028831;28;20069;-87
2021/08/27 08:58:45;;;;;;;13.57;2.38;;;18.10;76.70;;;;;;5016632;28;20520;-89
2021/08/27 09:01:18;;;;;;;9.73;2.20;;;18.20;76.30;;;;;;5024338;28;20049;-87
2021/08/27 09:03:47;;;;;;;12.68;3.33;;;18.30;75.80;;;;;;5025933;28;20060;-86
2021/08/27 09:06:14;;;;;;;13.13;3.65;;;18.40;74.90;;;;;;5030628;28;20129;-85
2021/08/27 09:08:46;;;;;;;8.70;3.22;;;18.40;73.90;;;;;;5057432;28;20049;-86
2021/08/27 09:11:18;;;;;;;10.82;3.35;;;18.50;73.60;;;;;;5017228;28;20608;-86
2021/08/27 09:13:46;;;;;;;15.50;3.72;;;18.60;73.00;;;;;;5019546;28;20046;-88
2021/08/27 09:16:14;;;;;;;9.18;3.05;;;18.70;72.80;;;;;;5025728;28;20393;-86
2021/08/27 09:18:44;;;;;;;11.10;2.92;;;18.80;72.80;;;;;;5026119;28;20156;-86
2021/08/27 09:21:26;;;;;;;11.35;2.55;;;18.80;72.80;;;;;;5017123;28;20147;-88
2021/08/27 09:24:12;;;;;;;12.07;3.15;;;18.90;72.90;;;;;;5015131;28;20053;-86
2021/08/27 09:26:41;;;;;;;12.77;2.80;;;18.90;72.80;;;;;;5028982;28;20745;-86
2021/08/27 09:29:08;;;;;;;11.43;2.90;;;18.90;72.70;;;;;;5015974;28;20102;-88
2021/08/27 09:31:37;;;;;;;11.57;2.60;;;18.90;72.50;;;;;;5018707;28;20068;-87
2021/08/27 09:34:05;;;;;;;11.05;2.80;;;19.00;72.10;;;;;;5018874;28;20462;-87
2021/08/27 09:36:34;;;;;;;11.15;2.20;;;19.10;71.40;;;;;;5025413;28;20050;-90
2021/08/27 09:39:07;;;;;;;7.80;2.30;;;19.10;70.80;;;;;;5027876;28;20050;-86
2021/08/27 09:41:35;;;;;;;11.48;2.40;;;19.20;70.00;;;;;;5028038;28;20045;-86
2021/08/27 09:44:02;;;;;;;9.63;2.08;;;19.30;69.30;;;;;;5027805;28;20478;-86
2021/08/27 09:46:42;;;;;;;8.75;2.42;;;19.30;68.80;;;;;;5024940;28;20046;-87
2021/08/27 09:49:26;;;;;;;10.65;2.45;;;19.40;68.20;;;;;;5060518;28;20194;-87
2021/08/27 09:51:55;;;;;;;9.52;2.58;;;19.50;68.00;;;;;;5026047;28;20054;-87
2021/08/27 09:54:27;;;;;;;10.43;2.55;;;19.60;68.20;;;;;;5016125;28;20118;-87
2021/08/27 09:56:57;;;;;;;11.77;2.90;;;19.70;68.60;;;;;;5012199;28;20539;-87
2021/08/27 09:59:46;;;;;;;8.70;2.17;;;19.80;68.60;;;;;;5031002;28;20056;-87
2021/08/27 10:02:16;;;;;;;7.50;2.13;;;19.90;68.30;;;;;;5016512;28;20050;-87
2021/08/27 10:04:51;;;;;;;8.40;2.60;;;19.90;68.10;;;;;;5016482;28;20096;-88
2021/08/27 10:07:29;;;;;;;13.77;2.75;;;19.90;68.20;;;;;;5020801;28;20065;-87
2021/08/27 10:10:01;;;;;;;12.40;2.55;;;19.80;68.50;;;;;;5022904;28;20046;-87
2021/08/27 10:12:36;;;;;;;9.75;2.22;;;19.80;68.60;;;;;;5017764;28;20045;-87
2021/08/27 10:15:08;;;;;;;8.23;2.30;;;19.80;68.30;;;;;;5014364;28;20050;-87
2021/08/27 10:17:37;;;;;;;11.25;2.50;;;19.70;68.10;;;;;;5045560;28;20053;-88
2021/08/27 10:20:07;;;;;;;11.48;2.88;;;19.70;67.90;;;;;;5015107;28;20046;-87
2021/08/27 10:22:41;;;;;;;10.35;3.03;;;19.70;67.70;;;;;;5027334;28;20056;-88
2021/08/27 10:25:11;;;;;;;13.73;2.65;;;19.70;67.50;;;;;;5023728;28;20046;-87
2021/08/27 10:27:45;;;;;;;13.38;3.15;;;19.70;66.70;;;;;;5029650;28;20049;-86
2021/08/27 10:30:12;;;;;;;11.32;2.55;;;19.80;66.50;;;;;;5058850;28;20470;-87
2021/08/27 10:32:39;;;;;;;10.68;2.53;;;19.90;66.60;;;;;;5012920;28;20108;-87
2021/08/27 10:35:08;;;;;;;10.60;3.10;;;20.00;66.70;;;;;;5029767;28;20057;-87
2021/08/27 10:37:48;;;;;;;14.07;3.10;;;20.20;66.40;;;;;;5018807;28;20131;-87
2021/08/27 10:40:27;;;;;;;9.50;3.10;;;20.30;66.20;;;;;;5025439;28;20060;-87
2021/08/27 10:43:02;;;;;;;9.80;2.95;;;20.40;66.20;;;;;;5022952;28;20104;-87
2021/08/27 10:45:32;;;;;;;11.30;3.30;;;20.70;66.40;;;;;;5021515;28;20065;-86
2021/08/27 10:48:15;;;;;;;9.13;2.80;;;20.90;66.40;;;;;;5027965;28;20049;-85
2021/08/27 10:50:50;;;;;;;11.57;3.00;;;21.00;64.70;;;;;;5027313;28;20062;-86
2021/08/27 10:53:37;;;;;;;13.05;3.22;;;21.20;65.30;;;;;;5025966;28;20069;-87
2021/08/27 10:56:08;;;;;;;12.30;3.47;;;21.30;65.20;;;;;;5014888;28;20054;-87
2021/08/27 10:58:52;;;;;;;10.45;3.10;;;21.40;64.80;;;;;;5016130;28;20097;-87
2021/08/27 11:01:25;;;;;;;14.55;3.17;;;21.40;63.80;;;;;;5025476;28;20107;-85
2021/08/27 11:04:17;;;;;;;11.75;3.28;;;21.40;63.70;;;;;;5024352;28;20459;-87
2021/08/27 11:06:50;;;;;;;11.85;3.50;;;21.40;63.70;;;;;;4988029;28;20046;-85
2021/08/27 11:09:22;;;;;;;13.00;3.55;;;21.40;63.60;;;;;;4992459;28;20050;-86
2021/08/27 11:12:22;;;;;;;12.13;3.78;;;21.40;63.20;;;;;;4976768;28;20046;-88
2021/08/27 11:14:53;;;;;;;11.55;3.97;;;21.30;63.50;;;;;;4992430;28;20057;-86
2021/08/27 11:17:21;;;;;;;12.85;3.63;;;21.20;63.90;;;;;;4973483;28;20062;-88
2021/08/27 11:19:55;;;;;;;13.55;4.00;;;21.10;64.30;;;;;;4964656;28;20059;-87
2021/08/27 11:22:29;;;;;;;10.82;3.92;;;21.00;64.60;;;;;;4988871;28;20050;-87
2021/08/27 11:25:02;;;;;;;10.82;4.13;;;20.90;64.90;;;;;;4970118;28;20055;-88
2021/08/27 11:27:30;;;;;;;16.15;4.55;;;20.80;65.10;;;;;;4961800;28;20110;-87
2021/08/27 11:30:01;;;;;;;18.65;4.82;;;20.70;65.10;;;;;;4975567;28;20065;-87
2021/08/27 11:32:28;;;;;;;13.07;4.13;;;20.70;65.20;;;;;;4974191;28;20059;-86
2021/08/27 11:35:03;;;;;;;14.15;4.75;;;20.60;65.50;;;;;;4976786;28;20090;-87
2021/08/27 11:37:31;;;;;;;10.63;3.90;;;20.70;65.70;;;;;;4972770;28;20568;-87
2021/08/27 11:40:02;;;;;;;10.65;3.65;;;20.80;65.30;;;;;;4985736;28;20045;-88
2021/08/27 11:42:30;;;;;;;12.80;4.45;;;20.90;64.40;;;;;;4992273;28;20057;-86
2021/08/27 11:45:06;;;;;;;14.30;4.40;;;21.00;63.90;;;;;;5027843;28;20049;-88
2021/08/27 11:47:46;;;;;;;9.63;3.92;;;21.10;63.40;;;;;;5031360;28;20049;-86
2021/08/27 11:50:40;;;;;;;14.95;4.85;;;21.20;63.20;;;;;;5029863;28;20054;-87
2021/08/27 11:53:08;;;;;;;11.95;4.35;;;21.30;63.60;;;;;;5019091;28;20053;-87
2021/08/27 11:55:44;;;;;;;12.27;4.10;;;21.40;63.50;;;;;;5027574;28;20050;-87
2021/08/27 11:58:12;;;;;;;11.98;4.00;;;21.40;63.50;;;;;;5019029;28;20041;-87
2021/08/27 12:00:45;;;;;;;12.15;3.85;;;21.50;63.80;;;;;;5018630;28;20411;-87
2021/08/27 12:03:14;;;;;;;18.83;4.65;;;21.50;63.40;;;;;;5016631;28;20053;-86
2021/08/27 12:05:42;;;;;;;14.75;4.82;;;21.50;63.60;;;;;;5066399;28;20527;-86
2021/08/27 12:08:15;;;;;;;14.77;5.30;;;21.60;63.70;;;;;;5019922;28;20092;-87
2021/08/27 12:10:46;;;;;;;16.17;4.75;;;21.60;62.80;;;;;;5027977;28;20045;-87
2021/08/27 12:13:14;;;;;;;12.43;4.50;;;21.50;62.70;;;;;;5059038;28;20508;-87
2021/08/27 12:15:44;;;;;;;13.43;5.07;;;21.40;62.90;;;;;;5027272;28;20064;-88
2021/08/27 12:18:16;;;;;;;13.77;4.72;;;21.40;63.30;;;;;;5028390;28;20085;-87
2021/08/27 12:20:48;;;;;;;15.95;5.47;;;21.20;63.90;;;;;;5029589;28;20057;-87
2021/08/27 12:23:18;;;;;;;16.73;5.03;;;21.10;64.60;;;;;;5017421;28;20058;-88
2021/08/27 12:26:02;;;;;;;14.68;5.70;;;21.00;65.30;;;;;;5018798;28;20085;-87
2021/08/27 12:28:31;;;;;;;17.77;6.18;;;20.90;66.00;;;;;;5018142;28;20050;-86
2021/08/27 12:30:58;;;;;;;11.48;4.60;;;20.70;66.60;;;;;;5020347;28;20061;-87
2021/08/27 12:33:35;;;;;;;13.43;5.13;;;20.60;67.20;;;;;;5029054;28;20411;-88
2021/08/27 12:36:02;;;;;;;11.70;5.50;;;20.50;67.70;;;;;;5015840;28;20042;-87
2021/08/27 12:38:29;;;;;;;14.93;5.72;;;20.40;67.80;;;;;;5016001;28;20053;-88
2021/08/27 12:41:15;;;;;;;14.73;5.80;;;20.30;68.20;;;;;;5018432;28;20104;-88
2021/08/27 12:43:44;;;;;;;16.85;5.70;;;20.20;68.90;;;;;;5029278;28;20132;-87
2021/08/27 12:46:30;;;;;;;15.27;5.80;;;20.20;69.30;;;;;;5029515;28;20050;-88
2021/08/27 12:49:17;;;;;;;18.95;5.75;;;20.10;69.90;;;;;;5026841;28;20092;-87
2021/08/27 12:51:50;;;;;;;13.90;5.82;;;20.20;69.70;;;;;;5022054;28;20062;-90